createdAt,value
2023-01-13T00:00:18.038Z,673
2023-01-13T00:02:17.712Z,676
2023-01-13T00:04:17.401Z,608
2023-01-13T00:06:18.134Z,640
2023-01-13T00:08:17.732Z,643
2023-01-13T00:10:17.420Z,687
2023-01-13T00:12:17.988Z,603
2023-01-13T00:14:17.666Z,753
2023-01-13T00:16:17.348Z,695
2023-01-13T00:18:18.194Z,670
2023-01-13T00:20:17.787Z,682
2023-01-13T00:22:17.585Z,673
2023-01-13T00:24:17.250Z,628
2023-01-13T00:26:17.895Z,681
2023-01-13T00:28:17.580Z,738
2023-01-13T00:30:18.227Z,741
2023-01-13T00:32:17.844Z,717
2023-01-13T00:34:17.498Z,778
2023-01-13T00:36:18.159Z,683
2023-01-13T00:38:17.793Z,630
2023-01-13T00:40:17.435Z,650
2023-01-13T00:42:18.109Z,701
2023-01-13T00:44:17.817Z,721
2023-01-13T00:46:17.488Z,628
2023-01-13T00:48:18.306Z,750
2023-01-13T00:50:18.166Z,721
2023-01-13T00:52:18.127Z,719
2023-01-13T00:54:17.975Z,695
2023-01-13T00:56:19.926Z,622
2023-01-13T00:58:17.698Z,675
2023-01-13T01:00:17.369Z,703
2023-01-13T01:02:18.082Z,711
2023-01-13T01:04:17.743Z,657
2023-01-13T01:06:17.349Z,652
2023-01-13T01:08:18.010Z,728
2023-01-13T01:10:17.603Z,609
2023-01-13T01:12:17.263Z,625
2023-01-13T01:14:17.938Z,634
2023-01-13T01:16:17.741Z,688
2023-01-13T01:18:17.575Z,702
2023-01-13T01:20:17.225Z,671
2023-01-13T01:22:17.835Z,576
2023-01-13T01:24:17.452Z,637
2023-01-13T01:26:18.174Z,674
2023-01-13T01:28:17.768Z,680
2023-01-13T01:30:17.369Z,682
2023-01-13T01:32:18.039Z,715
2023-01-13T01:34:17.638Z,682
2023-01-13T01:36:17.279Z,642
2023-01-13T01:38:17.960Z,554
2023-01-13T01:40:17.651Z,545
2023-01-13T01:42:17.251Z,686
2023-01-13T01:44:17.869Z,609
2023-01-13T01:46:17.582Z,672
2023-01-13T01:48:17.236Z,640
2023-01-13T01:50:17.864Z,582
2023-01-13T01:52:17.515Z,525
2023-01-13T01:54:18.209Z,626
2023-01-13T01:56:17.921Z,740
2023-01-13T01:58:17.626Z,621
2023-01-13T02:00:17.371Z,568
2023-01-13T02:02:18.039Z,630
2023-01-13T02:04:17.690Z,713
2023-01-13T02:06:17.359Z,624
2023-01-13T02:08:17.985Z,597
2023-01-13T02:10:17.759Z,723
2023-01-13T02:12:17.389Z,596
2023-01-13T02:14:18.107Z,712
2023-01-13T02:16:17.786Z,650
2023-01-13T02:18:17.507Z,639
2023-01-13T02:20:18.159Z,579
2023-01-13T02:22:17.768Z,680
2023-01-13T02:24:17.485Z,647
2023-01-13T02:26:18.095Z,585
2023-01-13T02:28:17.734Z,613
2023-01-13T02:30:17.750Z,654
2023-01-13T02:32:17.416Z,596
2023-01-13T02:34:18.078Z,622
2023-01-13T02:36:17.760Z,681
2023-01-13T02:38:17.362Z,729
2023-01-13T02:40:18.003Z,628
2023-01-13T02:42:17.603Z,631
2023-01-13T02:44:18.195Z,633
2023-01-13T02:46:17.939Z,514
2023-01-13T02:48:17.540Z,620
2023-01-13T02:50:18.241Z,672
2023-01-13T02:52:17.924Z,615
2023-01-13T02:54:17.621Z,666
2023-01-13T02:56:17.268Z,550
2023-01-13T02:58:17.919Z,633
2023-01-13T03:00:17.487Z,589
2023-01-13T03:02:18.252Z,598
2023-01-13T03:04:18.053Z,637
2023-01-13T03:06:17.703Z,658
2023-01-13T03:08:17.359Z,706
2023-01-13T03:10:17.976Z,649
2023-01-13T03:12:17.630Z,760
2023-01-13T03:14:17.233Z,683
2023-01-13T03:16:17.942Z,631
2023-01-13T03:18:17.744Z,593
2023-01-13T03:20:17.306Z,554
2023-01-13T03:22:17.961Z,699
2023-01-13T03:24:17.622Z,677
2023-01-13T03:26:17.237Z,722
2023-01-13T03:28:17.892Z,599
2023-01-13T03:30:17.771Z,640
2023-01-13T03:32:17.358Z,809
2023-01-13T03:34:18.033Z,612
2023-01-13T03:36:17.603Z,603
2023-01-13T03:38:18.229Z,773
2023-01-13T03:40:17.809Z,625
2023-01-13T03:42:17.398Z,651
2023-01-13T03:44:18.022Z,589
2023-01-13T03:46:17.722Z,698
2023-01-13T03:48:17.418Z,671
2023-01-13T03:50:18.004Z,710
2023-01-13T03:52:17.646Z,693
2023-01-13T03:54:17.307Z,677
2023-01-13T03:56:17.911Z,689
2023-01-13T03:58:17.584Z,645
2023-01-13T04:00:17.297Z,746
2023-01-13T04:02:17.963Z,678
2023-01-13T04:04:17.540Z,640
2023-01-13T04:06:18.112Z,626
2023-01-13T04:08:17.764Z,708
2023-01-13T04:10:17.373Z,703
2023-01-13T04:12:18.043Z,674
2023-01-13T04:14:17.619Z,676
2023-01-13T04:16:17.234Z,657
2023-01-13T04:18:18.002Z,725
2023-01-13T04:20:17.595Z,758
2023-01-13T04:22:18.234Z,630
2023-01-13T04:24:17.827Z,717
2023-01-13T04:26:17.471Z,714
2023-01-13T04:28:18.078Z,592
2023-01-13T04:30:17.680Z,658
2023-01-13T04:32:17.726Z,665
2023-01-13T04:34:17.437Z,672
2023-01-13T04:36:18.081Z,711
2023-01-13T04:38:17.682Z,623
2023-01-13T04:40:17.257Z,673
2023-01-13T04:42:17.897Z,700
2023-01-13T04:44:17.616Z,733
2023-01-13T04:46:17.418Z,668
2023-01-13T04:48:18.072Z,716
2023-01-13T04:50:18.007Z,683
2023-01-13T04:52:17.667Z,752
2023-01-13T04:54:17.214Z,693
2023-01-13T04:56:17.331Z,658
2023-01-13T04:58:18.019Z,694
2023-01-13T05:00:17.658Z,759
2023-01-13T05:02:17.368Z,707
2023-01-13T05:04:17.999Z,707
2023-01-13T05:06:17.606Z,694
2023-01-13T05:08:17.261Z,718
2023-01-13T05:10:17.837Z,792
2023-01-13T05:12:17.574Z,764
2023-01-13T05:14:17.223Z,739
2023-01-13T05:16:17.996Z,712
2023-01-13T05:18:17.751Z,774
2023-01-13T05:20:17.363Z,702
2023-01-13T05:22:17.947Z,720
2023-01-13T05:24:17.545Z,760
2023-01-13T05:26:18.038Z,833
2023-01-13T05:28:17.703Z,720
2023-01-13T05:30:17.364Z,798
2023-01-13T05:32:18.063Z,737
2023-01-13T05:34:17.687Z,763
2023-01-13T05:36:17.283Z,746
2023-01-13T05:38:18.144Z,784
2023-01-13T05:40:17.758Z,776
2023-01-13T05:42:17.407Z,765
2023-01-13T05:44:17.311Z,793
2023-01-13T05:46:18.094Z,751
2023-01-13T05:48:17.803Z,668
2023-01-13T05:50:17.409Z,760
2023-01-13T05:52:18.042Z,733
2023-01-13T05:54:17.681Z,675
2023-01-13T05:56:17.320Z,697
2023-01-13T05:58:17.943Z,835
2023-01-13T06:00:17.551Z,798
2023-01-13T06:02:18.226Z,814
2023-01-13T06:04:17.928Z,807
2023-01-13T06:06:17.591Z,774
2023-01-13T06:08:18.188Z,914
2023-01-13T06:10:17.817Z,803
2023-01-13T06:12:17.500Z,883
2023-01-13T06:14:18.128Z,747
2023-01-13T06:16:17.790Z,825
2023-01-13T06:18:17.555Z,664
2023-01-13T06:20:18.153Z,849
2023-01-13T06:22:17.787Z,818
2023-01-13T06:24:17.431Z,798
2023-01-13T06:26:18.320Z,844
2023-01-13T06:28:18.055Z,920
2023-01-13T06:30:17.663Z,701
2023-01-13T06:32:17.262Z,741
2023-01-13T06:34:17.876Z,806
2023-01-13T06:36:17.511Z,786
2023-01-13T06:38:18.196Z,859
2023-01-13T06:40:17.753Z,673
2023-01-13T06:42:17.416Z,848
2023-01-13T06:44:18.041Z,728
2023-01-13T06:46:17.732Z,902
2023-01-13T06:48:17.380Z,832
2023-01-13T06:50:18.035Z,739
2023-01-13T06:52:17.655Z,868
2023-01-13T06:54:17.262Z,846
2023-01-13T06:56:17.890Z,824
2023-01-13T06:58:17.539Z,700
2023-01-13T07:00:18.164Z,781
2023-01-13T07:02:17.979Z,767
2023-01-13T07:04:17.740Z,810
2023-01-13T07:06:17.337Z,752
2023-01-13T07:08:17.941Z,782
2023-01-13T07:10:17.586Z,663
2023-01-13T07:12:17.235Z,655
2023-01-13T07:14:18.158Z,716
2023-01-13T07:16:17.829Z,554
2023-01-13T07:18:17.720Z,533
2023-01-13T07:20:17.353Z,572
2023-01-13T07:22:17.989Z,623
2023-01-13T07:24:17.582Z,694
2023-01-13T07:26:17.690Z,753
2023-01-13T07:28:17.322Z,603
2023-01-13T07:30:17.957Z,717
2023-01-13T07:32:17.559Z,634
2023-01-13T07:34:18.242Z,623
2023-01-13T07:36:17.924Z,696
2023-01-13T07:38:17.520Z,680
2023-01-13T07:40:18.046Z,646
2023-01-13T07:42:17.727Z,831
2023-01-13T07:44:17.359Z,739
2023-01-13T07:46:18.005Z,704
2023-01-13T07:48:17.656Z,659
2023-01-13T07:50:17.280Z,715
2023-01-13T07:52:17.862Z,736
2023-01-13T07:54:19.293Z,782
2023-01-13T07:56:17.970Z,749
2023-01-13T07:58:17.605Z,726
2023-01-13T08:00:17.241Z,628
2023-01-13T08:02:17.998Z,777
2023-01-13T08:04:17.677Z,763
2023-01-13T08:06:17.292Z,761
2023-01-13T08:08:17.906Z,750
2023-01-13T08:10:17.526Z,685
2023-01-13T08:12:18.266Z,798
2023-01-13T08:14:17.956Z,762
2023-01-13T08:16:17.659Z,766
2023-01-13T08:18:17.462Z,728
2023-01-13T08:20:18.046Z,774
2023-01-13T08:22:17.684Z,705
2023-01-13T08:24:17.317Z,852
2023-01-13T08:26:17.987Z,745
2023-01-13T08:28:17.737Z,778
2023-01-13T08:30:17.708Z,852
2023-01-13T08:32:17.324Z,757
2023-01-13T08:34:17.974Z,691
2023-01-13T08:36:17.576Z,797
2023-01-13T08:38:18.204Z,703
2023-01-13T08:40:17.839Z,727
2023-01-13T08:42:17.510Z,821
2023-01-13T08:44:18.157Z,766
2023-01-13T08:46:17.939Z,893
2023-01-13T08:48:17.569Z,845
2023-01-13T08:50:18.150Z,750
2023-01-13T08:52:17.721Z,727
2023-01-13T08:54:17.311Z,871
2023-01-13T08:56:18.068Z,770
2023-01-13T08:58:17.651Z,910
2023-01-13T09:00:17.446Z,812
2023-01-13T09:02:18.183Z,812
2023-01-13T09:04:17.906Z,731
2023-01-13T09:06:17.771Z,719
2023-01-13T09:08:17.410Z,737
2023-01-13T09:10:18.101Z,838
2023-01-13T09:12:17.755Z,818
2023-01-13T09:14:17.421Z,793
2023-01-13T09:16:18.139Z,721
2023-01-13T09:18:17.956Z,759
2023-01-13T09:20:17.596Z,747
2023-01-13T09:22:18.180Z,798
2023-01-13T09:24:17.785Z,640
2023-01-13T09:26:17.428Z,824
2023-01-13T09:28:18.071Z,773
2023-01-13T09:30:17.718Z,850
2023-01-13T09:32:17.406Z,667
2023-01-13T09:34:18.003Z,731
2023-01-13T09:36:17.667Z,738
2023-01-13T09:38:17.405Z,791
2023-01-13T09:40:18.026Z,823
2023-01-13T09:42:17.670Z,691
2023-01-13T09:44:17.231Z,884
2023-01-13T09:46:18.115Z,709
2023-01-13T09:48:17.811Z,821
2023-01-13T09:50:17.506Z,877
2023-01-13T09:52:18.204Z,781
2023-01-13T09:54:17.967Z,849
2023-01-13T09:56:17.650Z,784
2023-01-13T09:58:17.321Z,867
2023-01-13T10:00:18.015Z,795
2023-01-13T10:02:17.677Z,783
2023-01-13T10:04:17.418Z,867
2023-01-13T10:06:18.115Z,636
2023-01-13T10:08:17.892Z,804
2023-01-13T10:10:17.806Z,830
2023-01-13T10:12:17.536Z,692
2023-01-13T10:14:17.368Z,841
2023-01-13T10:16:18.078Z,834
2023-01-13T10:18:17.931Z,682
2023-01-13T10:20:17.512Z,823
2023-01-13T10:22:18.292Z,831
2023-01-13T10:24:18.030Z,766
2023-01-13T10:26:18.052Z,723
2023-01-13T10:28:19.262Z,760
2023-01-13T10:30:18.038Z,738
2023-01-13T10:32:17.872Z,742
2023-01-13T10:34:17.568Z,771
2023-01-13T10:36:18.208Z,720
2023-01-13T10:38:17.976Z,769
2023-01-13T10:40:17.687Z,855
2023-01-13T10:42:17.487Z,718
2023-01-13T10:44:18.055Z,734
2023-01-13T10:46:18.191Z,730
2023-01-13T10:48:18.035Z,745
2023-01-13T10:50:17.830Z,805
2023-01-13T10:52:17.775Z,738
2023-01-13T10:54:17.395Z,695
2023-01-13T10:56:18.239Z,736
2023-01-13T10:58:17.965Z,701
2023-01-13T11:00:17.677Z,752
2023-01-13T11:02:25.157Z,773
2023-01-13T11:04:18.182Z,811
2023-01-13T11:06:18.144Z,816
2023-01-13T11:08:18.038Z,700
2023-01-13T11:10:17.916Z,689
2023-01-13T11:12:17.513Z,752
2023-01-13T11:14:18.116Z,844
2023-01-13T11:16:17.804Z,760
2023-01-13T11:18:17.568Z,698
2023-01-13T11:20:18.143Z,753
2023-01-13T11:22:17.803Z,747
2023-01-13T11:24:17.365Z,675
2023-01-13T11:26:18.037Z,822
2023-01-13T11:28:17.706Z,742
2023-01-13T11:30:17.474Z,790
2023-01-13T11:32:18.173Z,759
2023-01-13T11:34:17.794Z,817
2023-01-13T11:36:20.340Z,815
2023-01-13T11:38:18.121Z,728
2023-01-13T11:40:17.825Z,820
2023-01-13T11:42:17.736Z,819
2023-01-13T11:44:17.349Z,710
2023-01-13T11:46:18.248Z,846
2023-01-13T11:48:18.015Z,830
2023-01-13T11:50:20.473Z,815
2023-01-13T11:52:18.208Z,730
2023-01-13T11:54:18.280Z,810
2023-01-13T11:56:18.479Z,715
2023-01-13T11:58:17.250Z,659
2023-01-13T12:00:18.087Z,728
2023-01-13T12:02:17.822Z,719
2023-01-13T12:04:17.509Z,774
2023-01-13T12:06:18.254Z,835
2023-01-13T12:08:18.043Z,766
2023-01-13T12:10:17.692Z,690
2023-01-13T12:12:18.026Z,737
2023-01-13T12:14:17.658Z,803
2023-01-13T12:16:17.377Z,691
2023-01-13T12:18:18.157Z,771
2023-01-13T12:20:17.281Z,752
2023-01-13T12:22:17.934Z,785
2023-01-13T12:24:17.589Z,749
2023-01-13T12:26:17.279Z,754
2023-01-13T12:28:17.937Z,856
2023-01-13T12:30:17.561Z,796
2023-01-13T12:32:18.146Z,788
2023-01-13T12:34:17.735Z,771
2023-01-13T12:36:17.360Z,680
2023-01-13T12:38:17.317Z,783
2023-01-13T12:40:17.957Z,724
2023-01-13T12:42:17.758Z,605
2023-01-13T12:44:17.571Z,727
2023-01-13T12:46:18.596Z,751
2023-01-13T12:48:17.260Z,661
2023-01-13T12:50:18.020Z,755
2023-01-13T12:52:17.703Z,784
2023-01-13T12:54:17.266Z,720
2023-01-13T12:56:17.480Z,758
2023-01-13T12:58:18.152Z,752
2023-01-13T13:00:17.338Z,759
2023-01-13T13:02:18.329Z,819
2023-01-13T13:04:18.287Z,754
2023-01-13T13:06:18.104Z,823
2023-01-13T13:08:17.801Z,778
2023-01-13T13:10:17.475Z,777
2023-01-13T13:12:18.082Z,802
2023-01-13T13:14:17.735Z,767
2023-01-13T13:16:17.404Z,795
2023-01-13T13:18:18.162Z,811
2023-01-13T13:20:17.752Z,763
2023-01-13T13:22:17.451Z,1066
2023-01-13T13:24:18.088Z,935
2023-01-13T13:26:17.696Z,1010
2023-01-13T13:28:17.380Z,764
2023-01-13T13:30:18.051Z,831
2023-01-13T13:32:17.652Z,907
2023-01-13T13:34:17.342Z,810
2023-01-13T13:36:18.033Z,833
2023-01-13T13:38:17.688Z,877
2023-01-13T13:40:17.276Z,843
2023-01-13T13:42:17.894Z,828
2023-01-13T13:44:17.513Z,827
2023-01-13T13:46:18.220Z,963
2023-01-13T13:48:17.863Z,1063
2023-01-13T13:50:17.545Z,1122
2023-01-13T13:52:18.298Z,985
2023-01-13T13:54:17.986Z,938
2023-01-13T13:56:17.661Z,950
2023-01-13T13:58:17.276Z,976
2023-01-13T14:00:18.042Z,989
2023-01-13T14:02:17.720Z,950
2023-01-13T14:04:17.362Z,1131
2023-01-13T14:06:18.010Z,1024
2023-01-13T14:08:17.663Z,982
2023-01-13T14:10:17.301Z,939
2023-01-13T14:12:18.005Z,879
2023-01-13T14:14:17.662Z,926
2023-01-13T14:16:17.335Z,885
2023-01-13T14:18:18.088Z,885
2023-01-13T14:20:17.711Z,916
2023-01-13T14:22:17.279Z,888
2023-01-13T14:24:17.957Z,900
2023-01-13T14:26:17.662Z,1056
2023-01-13T14:28:17.346Z,1040
2023-01-13T14:30:18.016Z,1582
2023-01-13T14:32:17.627Z,1578
2023-01-13T14:34:30.617Z,1408
2023-01-13T14:36:17.915Z,1553
2023-01-13T14:38:17.516Z,1229
2023-01-13T14:40:18.145Z,1211
2023-01-13T14:42:17.749Z,1251
2023-01-13T14:44:17.421Z,1188
2023-01-13T14:46:18.109Z,1158
2023-01-13T14:48:17.762Z,1160
2023-01-13T14:50:17.353Z,1127
2023-01-13T14:52:17.935Z,1034
2023-01-13T14:54:17.561Z,1100
2023-01-13T14:56:17.229Z,1029
2023-01-13T14:58:17.919Z,1034
2023-01-13T15:00:17.582Z,912
2023-01-13T15:02:17.184Z,953
2023-01-13T15:04:17.757Z,950
2023-01-13T15:06:17.437Z,919
2023-01-13T15:08:18.080Z,904
2023-01-13T15:10:17.651Z,908
2023-01-13T15:12:17.238Z,894
2023-01-13T15:14:17.865Z,884
2023-01-13T15:16:17.552Z,830
2023-01-13T15:18:18.071Z,831
2023-01-13T15:20:17.741Z,898
2023-01-13T15:22:17.422Z,902
2023-01-13T15:24:18.061Z,855
2023-01-13T15:26:17.708Z,833
2023-01-13T15:28:17.371Z,811
2023-01-13T15:30:18.030Z,848
2023-01-13T15:32:17.761Z,683
2023-01-13T15:34:17.316Z,783
2023-01-13T15:36:17.898Z,813
2023-01-13T15:38:17.508Z,720
2023-01-13T15:40:17.057Z,806
2023-01-13T15:42:17.821Z,756
2023-01-13T15:44:17.419Z,793
2023-01-13T15:46:18.086Z,750
2023-01-13T15:48:17.657Z,673
2023-01-13T15:50:17.254Z,781
2023-01-13T15:52:17.974Z,691
2023-01-13T15:54:17.564Z,774
2023-01-13T15:56:17.177Z,725
2023-01-13T15:58:17.753Z,782
2023-01-13T16:00:17.478Z,703
2023-01-13T16:02:18.020Z,770
2023-01-13T16:04:17.654Z,785
2023-01-13T16:06:17.281Z,767
2023-01-13T16:08:17.881Z,699
2023-01-13T16:10:17.457Z,774
2023-01-13T16:12:18.059Z,771
2023-01-13T16:14:17.759Z,766
2023-01-13T16:16:17.472Z,712
2023-01-13T16:18:17.230Z,772
2023-01-13T16:20:17.226Z,687
2023-01-13T16:22:17.874Z,670
2023-01-13T16:24:17.499Z,781
2023-01-13T16:26:18.168Z,738
2023-01-13T16:28:17.796Z,702
2023-01-13T16:30:17.467Z,708
2023-01-13T16:32:18.209Z,743
2023-01-13T16:34:17.905Z,687
2023-01-13T16:36:17.502Z,683
2023-01-13T16:38:18.082Z,709
2023-01-13T16:40:17.652Z,687
2023-01-13T16:42:17.296Z,617
2023-01-13T16:44:17.970Z,676
2023-01-13T16:46:17.658Z,699
2023-01-13T16:48:17.294Z,642
2023-01-13T16:50:19.366Z,705
2023-01-13T16:52:17.525Z,699
2023-01-13T16:54:18.104Z,657
2023-01-13T16:56:18.500Z,623
2023-01-13T16:58:17.810Z,715
2023-01-13T17:00:17.445Z,672
2023-01-13T17:02:19.257Z,625
2023-01-13T17:04:17.336Z,610
2023-01-13T17:06:17.922Z,626
2023-01-13T17:08:17.762Z,572
2023-01-13T17:10:17.614Z,590
2023-01-13T17:12:17.248Z,646
2023-01-13T17:14:18.659Z,585
2023-01-13T17:16:18.078Z,664
2023-01-13T17:18:17.851Z,630
2023-01-13T17:20:17.480Z,572
2023-01-13T17:22:18.238Z,606
2023-01-13T17:24:17.813Z,578
2023-01-13T17:26:17.544Z,554
2023-01-13T17:28:18.233Z,608
2023-01-13T17:30:17.816Z,615
2023-01-13T17:32:17.487Z,594
2023-01-13T17:34:18.178Z,597
2023-01-13T17:36:18.032Z,609
2023-01-13T17:38:17.632Z,580
2023-01-13T17:40:17.229Z,609
2023-01-13T17:42:17.872Z,601
2023-01-13T17:44:17.572Z,616
2023-01-13T17:46:17.227Z,486
2023-01-13T17:48:17.860Z,550
2023-01-13T17:50:17.515Z,602
2023-01-13T17:52:18.194Z,639
2023-01-13T17:54:17.841Z,481
2023-01-13T17:56:17.434Z,617
2023-01-13T17:58:18.063Z,587
2023-01-13T18:00:17.669Z,630
2023-01-13T18:02:17.454Z,544
2023-01-13T18:04:18.122Z,626
2023-01-13T18:06:17.748Z,621
2023-01-13T18:08:17.354Z,553
2023-01-13T18:10:18.096Z,600
2023-01-13T18:12:17.739Z,646
2023-01-13T18:14:17.410Z,628
2023-01-13T18:16:18.086Z,542
2023-01-13T18:18:17.865Z,561
2023-01-13T18:20:17.697Z,646
2023-01-13T18:22:17.306Z,609
2023-01-13T18:24:17.964Z,624
2023-01-13T18:26:17.586Z,560
2023-01-13T18:28:17.212Z,650
2023-01-13T18:30:17.824Z,606
2023-01-13T18:32:17.451Z,639
2023-01-13T18:34:18.018Z,618
2023-01-13T18:36:17.613Z,675
2023-01-13T18:38:17.255Z,624
2023-01-13T18:40:20.477Z,622
2023-01-13T18:42:18.144Z,662
2023-01-13T18:44:17.800Z,617
2023-01-13T18:46:17.486Z,570
2023-01-13T18:48:18.141Z,626
2023-01-13T18:50:17.708Z,621
2023-01-13T18:52:17.302Z,688
2023-01-13T18:54:17.944Z,680
2023-01-13T18:56:17.576Z,647
2023-01-13T18:58:18.178Z,629
2023-01-13T19:00:17.816Z,586
2023-01-13T19:02:17.637Z,718
2023-01-13T19:04:17.312Z,632
2023-01-13T19:06:17.920Z,655
2023-01-13T19:08:17.571Z,594
2023-01-13T19:10:17.214Z,653
2023-01-13T19:12:17.775Z,654
2023-01-13T19:14:17.356Z,628
2023-01-13T19:16:17.934Z,645
2023-01-13T19:18:17.762Z,723
2023-01-13T19:20:17.449Z,677
2023-01-13T19:22:18.078Z,592
2023-01-13T19:24:17.757Z,657
2023-01-13T19:26:17.860Z,632
2023-01-13T19:28:17.522Z,660
2023-01-13T19:30:17.551Z,579
2023-01-13T19:32:18.161Z,568
2023-01-13T19:34:17.862Z,605
2023-01-13T19:36:17.661Z,599
2023-01-13T19:38:17.386Z,624
2023-01-13T19:40:18.152Z,625
2023-01-13T19:42:17.767Z,683
2023-01-13T19:44:17.552Z,602
2023-01-13T19:46:18.192Z,640
2023-01-13T19:48:17.846Z,530
2023-01-13T19:50:17.491Z,653
2023-01-13T19:52:18.084Z,581
2023-01-13T19:54:17.740Z,651
2023-01-13T19:56:17.365Z,570
2023-01-13T19:58:18.003Z,543
2023-01-13T20:00:17.617Z,614
2023-01-13T20:02:17.247Z,539
2023-01-13T20:04:17.855Z,614
2023-01-13T20:06:17.459Z,679
2023-01-13T20:08:18.100Z,613
2023-01-13T20:10:17.733Z,582
2023-01-13T20:12:17.346Z,611
2023-01-13T20:14:17.989Z,547
2023-01-13T20:16:17.678Z,554
2023-01-13T20:18:17.441Z,627
2023-01-13T20:20:18.043Z,612
2023-01-13T20:22:17.749Z,590
2023-01-13T20:24:17.414Z,516
2023-01-13T20:26:18.071Z,626
2023-01-13T20:28:17.739Z,548
2023-01-13T20:30:17.394Z,599
2023-01-13T20:32:18.054Z,621
2023-01-13T20:34:17.697Z,605
2023-01-13T20:36:17.438Z,646
2023-01-13T20:38:18.022Z,613
2023-01-13T20:40:17.622Z,598
2023-01-13T20:42:18.461Z,620
2023-01-13T20:44:18.082Z,569
2023-01-13T20:46:17.683Z,655
2023-01-13T20:48:17.339Z,657
2023-01-13T20:50:18.018Z,607
2023-01-13T20:52:17.714Z,615
2023-01-13T20:54:17.392Z,625
2023-01-13T20:56:18.038Z,588
2023-01-13T20:58:17.727Z,597
2023-01-13T21:00:17.435Z,613
2023-01-13T21:02:18.057Z,591
2023-01-13T21:04:17.670Z,639
2023-01-13T21:06:17.270Z,577
2023-01-13T21:08:17.893Z,610
2023-01-13T21:10:17.523Z,578
2023-01-13T21:12:18.228Z,538
2023-01-13T21:14:17.802Z,575
2023-01-13T21:16:17.512Z,527
2023-01-13T21:18:17.364Z,687
2023-01-13T21:20:18.001Z,618
2023-01-13T21:22:17.578Z,596
2023-01-13T21:24:17.791Z,594
2023-01-13T21:26:17.458Z,600
2023-01-13T21:28:18.124Z,641
2023-01-13T21:30:17.907Z,605
2023-01-13T21:32:18.174Z,602
2023-01-13T21:34:17.849Z,560
2023-01-13T21:36:18.001Z,638
2023-01-13T21:38:17.630Z,621
2023-01-13T21:40:17.423Z,619
2023-01-13T21:42:18.077Z,645
2023-01-13T21:44:17.726Z,626
2023-01-13T21:46:17.695Z,674
2023-01-13T21:48:17.503Z,585
2023-01-13T21:50:18.167Z,683
2023-01-13T21:52:17.834Z,629
2023-01-13T21:54:17.461Z,645
2023-01-13T21:56:17.357Z,703
2023-01-13T21:58:18.142Z,637
2023-01-13T22:00:17.754Z,604
2023-01-13T22:02:23.593Z,543
2023-01-13T22:04:17.602Z,604
2023-01-13T22:06:17.730Z,659
2023-01-13T22:08:17.694Z,640
2023-01-13T22:10:17.352Z,659
2023-01-13T22:12:17.353Z,600
2023-01-13T22:14:18.041Z,665
2023-01-13T22:16:17.647Z,660
2023-01-13T22:18:17.628Z,608
2023-01-13T22:20:17.286Z,691
2023-01-13T22:22:17.462Z,664
2023-01-13T22:24:17.687Z,635
2023-01-13T22:26:17.844Z,612
2023-01-13T22:28:17.629Z,637
2023-01-13T22:30:17.568Z,653
2023-01-13T22:32:17.537Z,681
2023-01-13T22:34:17.316Z,690
2023-01-13T22:36:18.005Z,710
2023-01-13T22:38:17.748Z,610
2023-01-13T22:40:17.462Z,593
2023-01-13T22:42:17.810Z,654
2023-01-13T22:44:17.935Z,651
2023-01-13T22:46:17.636Z,669
2023-01-13T22:48:17.291Z,702
2023-01-13T22:50:17.972Z,657
2023-01-13T22:52:17.591Z,604
2023-01-13T22:54:17.813Z,607
2023-01-13T22:56:17.610Z,609
2023-01-13T22:58:17.218Z,648
2023-01-13T23:00:18.074Z,627
2023-01-13T23:02:17.745Z,621
2023-01-13T23:04:17.483Z,565
2023-01-13T23:06:18.161Z,651
2023-01-13T23:08:17.286Z,647
2023-01-13T23:10:20.499Z,565
2023-01-13T23:12:18.144Z,642
2023-01-13T23:14:17.979Z,641
2023-01-13T23:16:17.798Z,622
2023-01-13T23:18:17.909Z,676
2023-01-13T23:20:17.529Z,735
2023-01-13T23:22:17.276Z,672
2023-01-13T23:24:17.874Z,657
2023-01-13T23:26:17.771Z,643
2023-01-13T23:28:17.513Z,654
2023-01-13T23:30:18.145Z,631
2023-01-13T23:32:17.809Z,587
2023-01-13T23:34:17.439Z,689
2023-01-13T23:36:18.110Z,660
2023-01-13T23:38:18.014Z,624
2023-01-13T23:40:17.941Z,613
2023-01-13T23:42:18.026Z,571
2023-01-13T23:44:17.759Z,606
2023-01-13T23:46:17.573Z,652
2023-01-13T23:48:17.232Z,621
2023-01-13T23:50:17.899Z,544
2023-01-13T23:52:18.238Z,608
2023-01-13T23:54:17.887Z,607
2023-01-13T23:56:18.030Z,609
2023-01-13T23:58:17.905Z,619
